Terminal Aerodrome Forecast
Issued by NWS

Home | Current Version | Previous Version | Text Only | Print | Product List | Glossary On
Versions: 1 2 3 4 5 6 7 8 9 10 11 12 13
631
FTUS44 KCRP 140524
TAFALI
TAF
KALI 140524Z 1406/1506 20003KT P6SM SCT120 BKN250
     FM141400 08005KT P6SM BKN100 OVC200
     FM150300 02010KT P6SM -SHRA BKN050=

USA.gov is the U.S. government's official web portal to all federal, state and local government web resources and services.